createdAt,value
2023-04-28T00:00:31.852Z,11.31
2023-04-28T00:01:32.390Z,11.31
2023-04-28T00:02:34.076Z,11.31
2023-04-28T00:03:33.716Z,11.31
2023-04-28T00:03:42.471Z,11.18
2023-04-28T00:04:42.892Z,11.19
2023-04-28T00:05:43.080Z,11.20
2023-04-28T00:06:43.653Z,11.21
2023-04-28T00:07:44.384Z,11.22
2023-04-28T00:08:44.973Z,11.23
2023-04-28T00:09:45.534Z,11.23
2023-04-28T00:10:46.249Z,11.24
2023-04-28T00:11:46.839Z,11.25
2023-04-28T00:12:47.383Z,11.26
2023-04-28T00:13:48.924Z,11.27
2023-04-28T00:14:48.883Z,11.27
2023-04-28T00:14:57.544Z,11.16
2023-04-28T00:15:58.308Z,11.17
2023-04-28T00:16:59.045Z,11.18
2023-04-28T00:18:00.050Z,11.19
2023-04-28T00:19:00.573Z,11.19
2023-04-28T00:20:01.049Z,11.18
2023-04-28T00:21:01.597Z,11.18
2023-04-28T00:22:02.256Z,11.18
2023-04-28T00:23:02.775Z,11.16
2023-04-28T00:24:03.358Z,11.15
2023-04-28T00:25:04.017Z,11.14
2023-04-28T00:26:04.528Z,11.14
2023-04-28T00:26:13.172Z,10.97
2023-04-28T00:27:13.157Z,10.98
2023-04-28T00:28:18.321Z,10.99
2023-04-28T00:29:14.474Z,10.99
2023-04-28T00:30:15.114Z,10.99
2023-04-28T00:31:15.724Z,10.99
2023-04-28T00:32:15.877Z,10.98
2023-04-28T00:33:16.512Z,10.97
2023-04-28T00:34:17.425Z,10.96
2023-04-28T00:35:17.773Z,10.94
2023-04-28T00:36:25.379Z,10.92
2023-04-28T00:37:19.031Z,10.90
2023-04-28T00:37:28.637Z,10.89
2023-04-28T00:38:29.222Z,10.87
2023-04-28T00:39:29.906Z,10.86
2023-04-28T00:40:31.396Z,10.84
2023-04-28T00:41:30.887Z,10.83
2023-04-28T00:42:31.438Z,10.82
2023-04-28T00:43:31.972Z,10.81
2023-04-28T00:44:32.666Z,10.80
2023-04-28T00:45:33.740Z,10.79
2023-04-28T00:46:34.245Z,10.78
2023-04-28T00:47:34.928Z,10.77
2023-04-28T00:47:43.653Z,10.75
2023-04-28T00:48:44.113Z,10.74
2023-04-28T00:49:44.212Z,10.72
2023-04-28T00:50:44.689Z,10.71
2023-04-28T00:51:45.221Z,10.70
2023-04-28T00:52:45.823Z,10.69
2023-04-28T00:53:46.360Z,10.68
2023-04-28T00:54:46.936Z,10.66
2023-04-28T00:55:47.537Z,10.64
2023-04-28T00:56:48.393Z,10.61
2023-04-28T00:57:49.108Z,10.59
2023-04-28T00:57:57.788Z,10.56
2023-04-28T00:58:58.437Z,10.54
2023-04-28T00:59:59.013Z,10.51
2023-04-28T01:00:59.629Z,10.49
2023-04-28T01:02:00.272Z,10.46
2023-04-28T01:03:01.366Z,10.44
2023-04-28T01:04:01.927Z,10.42
2023-04-28T01:05:02.490Z,10.40
2023-04-28T01:06:03.011Z,10.39
2023-04-28T01:07:03.621Z,10.37
2023-04-28T01:08:04.450Z,10.35
2023-04-28T01:09:05.142Z,10.33
2023-04-28T01:09:13.762Z,10.30
2023-04-28T01:10:14.680Z,10.28
2023-04-28T01:11:15.433Z,10.26
2023-04-28T01:12:16.018Z,10.24
2023-04-28T01:13:16.375Z,10.22
2023-04-28T01:14:17.277Z,10.19
2023-04-28T01:15:17.261Z,10.17
2023-04-28T01:16:17.892Z,10.16
2023-04-28T01:17:18.696Z,10.14
2023-04-28T01:18:18.779Z,10.13
2023-04-28T01:19:19.456Z,10.12
2023-04-28T01:19:28.100Z,10.11
2023-04-28T01:20:28.696Z,10.10
2023-04-28T01:21:29.274Z,10.09
2023-04-28T01:22:29.450Z,10.08
2023-04-28T01:23:30.094Z,10.07
2023-04-28T01:24:30.718Z,10.07
2023-04-28T01:25:31.175Z,10.06
2023-04-28T01:26:31.687Z,10.05
2023-04-28T01:27:32.364Z,10.04
2023-04-28T01:28:32.959Z,10.03
2023-04-28T01:29:33.586Z,10.03
2023-04-28T01:30:34.111Z,10.03
2023-04-28T01:30:42.717Z,10.02
2023-04-28T01:31:43.611Z,10.01
2023-04-28T01:32:44.487Z,10.01
2023-04-28T01:33:45.105Z,10.01
2023-04-28T01:34:45.730Z,10.01
2023-04-28T01:35:46.306Z,10.01
2023-04-28T01:36:46.928Z,10.01
2023-04-28T01:37:47.493Z,10.01
2023-04-28T01:38:48.475Z,10.00
2023-04-28T01:39:49.074Z,10.00
2023-04-28T01:40:49.188Z,10.00
2023-04-28T01:41:00.324Z,10.00
2023-04-28T01:42:00.900Z,9.99
2023-04-28T01:43:01.494Z,9.99
2023-04-28T01:44:02.102Z,9.99
2023-04-28T01:45:02.841Z,9.99
2023-04-28T01:46:04.376Z,9.99
2023-04-28T01:47:03.901Z,9.99
2023-04-28T01:48:04.538Z,9.99
2023-04-28T01:49:05.056Z,9.99
2023-04-28T01:50:05.698Z,10.00
2023-04-28T01:51:06.239Z,9.99
2023-04-28T01:52:06.806Z,10.00
2023-04-28T01:52:15.417Z,10.00
2023-04-28T01:53:16.238Z,10.01
2023-04-28T01:54:17.084Z,10.00
2023-04-28T01:55:17.523Z,9.99
2023-04-28T01:56:18.108Z,9.99
2023-04-28T01:57:19.534Z,9.98
2023-04-28T01:58:19.160Z,9.98
2023-04-28T01:59:19.198Z,9.97
2023-04-28T02:00:19.755Z,9.97
2023-04-28T02:01:20.399Z,9.98
2023-04-28T02:02:20.940Z,9.97
2023-04-28T02:03:21.773Z,9.97
2023-04-28T02:03:30.219Z,9.84
2023-04-28T02:04:31.078Z,9.85
2023-04-28T02:05:31.619Z,9.86
2023-04-28T02:06:32.197Z,9.87
2023-04-28T02:07:32.459Z,9.88
2023-04-28T02:08:32.968Z,9.88
2023-04-28T02:09:33.535Z,9.89
2023-04-28T02:10:34.145Z,9.89
2023-04-28T02:11:34.815Z,9.89
2023-04-28T02:12:35.375Z,9.89
2023-04-28T02:13:36.948Z,9.89
2023-04-28T02:14:36.562Z,9.89
2023-04-28T02:14:45.263Z,9.78
2023-04-28T02:15:45.864Z,9.80
2023-04-28T02:16:46.558Z,9.81
2023-04-28T02:17:47.188Z,9.82
2023-04-28T02:18:47.727Z,9.83
2023-04-28T02:19:48.309Z,9.84
2023-04-28T02:20:48.921Z,9.84
2023-04-28T02:21:49.491Z,9.86
2023-04-28T02:22:51.096Z,9.87
2023-04-28T02:23:50.728Z,9.88
2023-04-28T02:24:51.302Z,9.91
2023-04-28T02:25:00.549Z,9.85
2023-04-28T02:26:01.536Z,9.88
2023-04-28T02:27:02.081Z,9.91
2023-04-28T02:28:03.039Z,9.94
2023-04-28T02:29:03.598Z,9.97
2023-04-28T02:30:04.091Z,10.01
2023-04-28T02:31:04.918Z,10.04
2023-04-28T02:32:05.476Z,10.07
2023-04-28T02:33:06.134Z,10.10
2023-04-28T02:34:06.555Z,10.13
2023-04-28T02:35:07.281Z,10.15
2023-04-28T02:36:07.917Z,10.18
2023-04-28T02:36:23.748Z,10.21
2023-04-28T02:37:24.471Z,10.24
2023-04-28T02:38:25.222Z,10.26
2023-04-28T02:39:25.766Z,10.27
2023-04-28T02:40:26.384Z,10.29
2023-04-28T02:41:26.960Z,10.31
2023-04-28T02:42:27.860Z,10.32
2023-04-28T02:43:28.765Z,10.33
2023-04-28T02:44:29.373Z,10.34
2023-04-28T02:45:31.018Z,10.33
2023-04-28T02:46:31.676Z,10.33
2023-04-28T02:46:43.865Z,10.32
2023-04-28T02:47:44.108Z,10.31
2023-04-28T02:48:44.552Z,10.31
2023-04-28T02:49:45.168Z,10.30
2023-04-28T02:50:45.699Z,10.29
2023-04-28T02:51:46.377Z,10.29
2023-04-28T02:52:48.970Z,10.28
2023-04-28T02:53:46.940Z,10.26
2023-04-28T02:54:47.428Z,10.25
2023-04-28T02:55:48.039Z,10.24
2023-04-28T02:56:48.656Z,10.23
2023-04-28T02:57:49.206Z,10.22
2023-04-28T02:57:57.808Z,10.21
2023-04-28T02:58:59.403Z,10.20
2023-04-28T02:59:58.958Z,10.20
2023-04-28T03:00:59.940Z,10.20
2023-04-28T03:02:00.663Z,10.20
2023-04-28T03:03:01.337Z,10.19
2023-04-28T03:04:02.285Z,10.19
2023-04-28T03:05:03.003Z,10.20
2023-04-28T03:06:03.446Z,10.20
2023-04-28T03:07:04.253Z,10.20
2023-04-28T03:08:04.909Z,10.20
2023-04-28T03:09:05.650Z,10.19
2023-04-28T03:09:14.276Z,10.18
2023-04-28T03:10:14.946Z,10.17
2023-04-28T03:11:15.715Z,10.16
2023-04-28T03:12:16.405Z,10.15
2023-04-28T03:13:17.223Z,10.15
2023-04-28T03:14:17.958Z,10.14
2023-04-28T03:15:18.252Z,10.13
2023-04-28T03:16:19.185Z,10.13
2023-04-28T03:17:19.862Z,10.12
2023-04-28T03:18:20.082Z,10.12
2023-04-28T03:19:20.626Z,10.11
2023-04-28T03:20:21.217Z,10.10
2023-04-28T03:20:30.328Z,10.09
2023-04-28T03:21:30.957Z,10.08
2023-04-28T03:22:31.686Z,10.07
2023-04-28T03:23:32.297Z,10.07
2023-04-28T03:24:32.835Z,10.06
2023-04-28T03:25:33.466Z,10.06
2023-04-28T03:26:34.081Z,10.05
2023-04-28T03:27:34.782Z,10.05
2023-04-28T03:28:35.320Z,10.03
2023-04-28T03:29:35.924Z,10.02
2023-04-28T03:30:36.483Z,10.01
2023-04-28T03:31:37.122Z,10.00
2023-04-28T03:31:45.763Z,9.99
2023-04-28T03:32:46.433Z,9.98
2023-04-28T03:33:47.329Z,9.97
2023-04-28T03:34:47.865Z,9.96
2023-04-28T03:35:48.548Z,9.95
2023-04-28T03:36:48.610Z,9.95
2023-04-28T03:37:49.729Z,9.94
2023-04-28T03:38:49.669Z,9.94
2023-04-28T03:39:50.332Z,9.94
2023-04-28T03:40:50.866Z,9.94
2023-04-28T03:41:52.641Z,9.93
2023-04-28T03:42:03.368Z,9.93
2023-04-28T03:43:04.881Z,9.93
2023-04-28T03:44:04.466Z,9.92
2023-04-28T03:45:05.199Z,9.92
2023-04-28T03:46:05.725Z,9.92
2023-04-28T03:47:06.417Z,9.91
2023-04-28T03:48:07.044Z,9.91
2023-04-28T03:49:07.578Z,9.90
2023-04-28T03:50:08.373Z,9.90
2023-04-28T03:51:08.684Z,9.89
2023-04-28T03:52:10.406Z,9.89
2023-04-28T03:52:19.094Z,9.89
2023-04-28T03:53:19.748Z,9.89
2023-04-28T03:54:20.278Z,9.89
2023-04-28T03:55:20.786Z,9.89
2023-04-28T03:56:21.411Z,9.89
2023-04-28T03:57:22.258Z,9.89
2023-04-28T03:58:23.097Z,9.89
2023-04-28T03:59:23.910Z,9.89
2023-04-28T04:00:24.626Z,9.89
2023-04-28T04:01:26.280Z,9.89
2023-04-28T04:02:25.635Z,9.88
2023-04-28T04:02:37.881Z,9.88
2023-04-28T04:03:38.669Z,9.88
2023-04-28T04:04:39.217Z,9.88
2023-04-28T04:05:40.244Z,9.88
2023-04-28T04:06:40.808Z,9.88
2023-04-28T04:07:41.115Z,9.88
2023-04-28T04:08:41.935Z,9.88
2023-04-28T04:09:42.675Z,9.88
2023-04-28T04:10:43.305Z,9.88
2023-04-28T04:11:44.074Z,9.88
2023-04-28T04:12:44.887Z,9.88
2023-04-28T04:13:45.758Z,9.87
2023-04-28T04:13:54.362Z,9.88
2023-04-28T04:14:55.087Z,9.87
2023-04-28T04:15:55.990Z,9.87
2023-04-28T04:16:56.645Z,9.87
2023-04-28T04:17:57.311Z,9.87
2023-04-28T04:18:58.096Z,9.87
2023-04-28T04:19:59.193Z,9.87
2023-04-28T04:20:58.892Z,9.88
2023-04-28T04:21:59.618Z,9.87
2023-04-28T04:23:00.177Z,9.86
2023-04-28T04:24:01.117Z,9.86
2023-04-28T04:25:01.797Z,9.86
2023-04-28T04:25:11.639Z,9.86
2023-04-28T04:26:12.335Z,9.86
2023-04-28T04:27:13.201Z,9.86
2023-04-28T04:28:13.976Z,9.86
2023-04-28T04:29:14.162Z,9.87
2023-04-28T04:30:15.022Z,9.87
2023-04-28T04:31:15.933Z,9.88
2023-04-28T04:32:16.740Z,9.89
2023-04-28T04:33:17.605Z,9.88
2023-04-28T04:34:18.511Z,9.88
2023-04-28T04:35:18.331Z,9.87
2023-04-28T04:36:18.431Z,9.86
2023-04-28T04:37:18.899Z,9.86
2023-04-28T04:37:27.513Z,9.85
2023-04-28T04:38:27.883Z,9.85
2023-04-28T04:39:29.026Z,9.85
2023-04-28T04:40:28.828Z,9.85
2023-04-28T04:41:28.865Z,9.85
2023-04-28T04:42:29.658Z,9.85
2023-04-28T04:43:30.354Z,9.85
2023-04-28T04:44:30.488Z,9.86
2023-04-28T04:45:31.113Z,9.86
2023-04-28T04:46:31.962Z,9.87
2023-04-28T04:47:32.650Z,9.87
2023-04-28T04:48:33.429Z,9.88
2023-04-28T04:48:44.628Z,9.89
2023-04-28T04:49:45.035Z,9.89
2023-04-28T04:50:45.619Z,9.89
2023-04-28T04:51:46.082Z,9.89
2023-04-28T04:52:46.307Z,9.90
2023-04-28T04:53:46.879Z,9.90
2023-04-28T04:54:47.563Z,9.90
2023-04-28T04:55:47.969Z,9.90
2023-04-28T04:56:49.551Z,9.91
2023-04-28T04:57:49.273Z,9.91
2023-04-28T04:58:49.600Z,9.92
2023-04-28T04:59:50.226Z,9.93
2023-04-28T05:00:01.957Z,9.93
2023-04-28T05:01:03.536Z,9.94
2023-04-28T05:02:03.154Z,9.95
2023-04-28T05:03:04.234Z,9.95
2023-04-28T05:04:04.255Z,9.96
2023-04-28T05:05:16.740Z,9.96
2023-04-28T05:06:04.957Z,9.96
2023-04-28T05:07:05.227Z,9.96
2023-04-28T05:08:06.025Z,9.96
2023-04-28T05:09:06.951Z,9.96
2023-04-28T05:10:07.111Z,9.97
2023-04-28T05:11:07.838Z,9.97
2023-04-28T05:12:08.662Z,9.98
2023-04-28T05:13:09.552Z,9.98
2023-04-28T05:13:29.552Z,9.99
2023-04-28T05:14:30.327Z,10.00
2023-04-28T05:15:31.077Z,10.01
2023-04-28T05:16:31.833Z,10.01
2023-04-28T05:17:32.492Z,10.01
2023-04-28T05:18:33.186Z,10.02
2023-04-28T05:19:33.232Z,10.03
2023-04-28T05:20:34.008Z,10.03
2023-04-28T05:21:34.086Z,10.04
2023-04-28T05:22:34.951Z,10.04
2023-04-28T05:23:35.244Z,10.05
2023-04-28T05:24:35.956Z,10.05
2023-04-28T05:25:59.869Z,10.07
2023-04-28T05:26:59.427Z,10.07
2023-04-28T05:28:00.046Z,10.07
2023-04-28T05:29:00.827Z,10.08
2023-04-28T05:30:01.726Z,10.08
2023-04-28T05:31:01.981Z,10.08
2023-04-28T05:32:02.596Z,10.08
2023-04-28T05:33:02.746Z,10.09
2023-04-28T05:34:03.623Z,10.09
2023-04-28T05:35:04.458Z,10.08
2023-04-28T05:36:05.673Z,10.07
2023-04-28T05:37:05.432Z,10.07
2023-04-28T05:37:14.118Z,10.07
2023-04-28T05:38:14.484Z,10.07
2023-04-28T05:39:16.013Z,10.07
2023-04-28T05:40:15.716Z,10.07
2023-04-28T05:41:16.334Z,10.07
2023-04-28T05:42:17.318Z,10.07
2023-04-28T05:43:17.658Z,10.07
2023-04-28T05:44:18.516Z,10.07
2023-04-28T05:45:18.669Z,10.07
2023-04-28T05:46:30.142Z,10.08
2023-04-28T05:47:20.836Z,10.08
2023-04-28T05:48:20.455Z,10.09
2023-04-28T05:49:21.033Z,10.10
2023-04-28T05:49:29.730Z,10.10
2023-04-28T05:50:29.932Z,10.11
2023-04-28T05:51:30.546Z,10.11
2023-04-28T05:52:31.294Z,10.12
2023-04-28T05:53:32.033Z,10.13
2023-04-28T05:54:32.806Z,10.13
2023-04-28T05:55:33.437Z,10.14
2023-04-28T05:56:34.000Z,10.15
2023-04-28T05:57:45.774Z,10.15
2023-04-28T05:58:35.470Z,10.16
2023-04-28T05:59:35.514Z,10.16
2023-04-28T05:59:49.644Z,10.16
2023-04-28T06:00:48.652Z,10.16
2023-04-28T06:01:49.118Z,10.16
2023-04-28T06:02:49.284Z,10.16
2023-04-28T06:03:49.752Z,10.16
2023-04-28T06:04:50.255Z,10.15
2023-04-28T06:05:50.685Z,10.15
2023-04-28T06:06:51.300Z,10.15
2023-04-28T06:07:53.711Z,10.14
2023-04-28T06:08:52.477Z,10.15
2023-04-28T06:09:52.904Z,10.15
2023-04-28T06:10:53.660Z,10.16
2023-04-28T06:11:54.274Z,10.17
2023-04-28T06:12:07.388Z,10.00
2023-04-28T06:13:08.246Z,10.03
2023-04-28T06:14:08.975Z,10.05
2023-04-28T06:15:09.088Z,10.08
2023-04-28T06:16:09.771Z,10.10
2023-04-28T06:17:10.117Z,10.12
2023-04-28T06:18:10.984Z,10.14
2023-04-28T06:19:11.492Z,10.17
2023-04-28T06:20:11.735Z,10.19
2023-04-28T06:21:12.485Z,10.22
2023-04-28T06:22:12.905Z,10.24
2023-04-28T06:23:13.316Z,10.27
2023-04-28T06:23:23.014Z,10.29
2023-04-28T06:24:23.959Z,10.31
2023-04-28T06:25:24.588Z,10.34
2023-04-28T06:26:25.208Z,10.35
2023-04-28T06:27:25.448Z,10.37
2023-04-28T06:28:25.495Z,10.39
2023-04-28T06:29:25.634Z,10.41
2023-04-28T06:30:26.354Z,10.43
2023-04-28T06:31:26.589Z,10.45
2023-04-28T06:32:27.535Z,10.47
2023-04-28T06:33:27.513Z,10.50
2023-04-28T06:34:30.128Z,10.52
2023-04-28T06:34:43.382Z,10.54
2023-04-28T06:35:44.457Z,10.57
2023-04-28T06:36:44.386Z,10.59
2023-04-28T06:37:45.113Z,10.61
2023-04-28T06:38:46.719Z,10.63
2023-04-28T06:39:46.389Z,10.64
2023-04-28T06:40:47.292Z,10.65
2023-04-28T06:41:48.030Z,10.67
2023-04-28T06:42:48.848Z,10.68
2023-04-28T06:43:49.411Z,10.69
2023-04-28T06:44:50.130Z,10.71
2023-04-28T06:45:02.056Z,10.73
2023-04-28T06:46:02.664Z,10.75
2023-04-28T06:47:02.846Z,10.76
2023-04-28T06:48:03.710Z,10.78
2023-04-28T06:49:04.304Z,10.79
2023-04-28T06:50:05.105Z,10.81
2023-04-28T06:51:06.008Z,10.83
2023-04-28T06:52:06.284Z,10.85
2023-04-28T06:53:07.009Z,10.88
2023-04-28T06:54:07.439Z,10.91
2023-04-28T06:55:07.527Z,10.94
2023-04-28T06:56:09.819Z,10.98
2023-04-28T06:56:20.574Z,11.02
2023-04-28T06:57:20.308Z,11.06
2023-04-28T06:58:20.985Z,11.09
2023-04-28T06:59:21.513Z,11.12
2023-04-28T07:00:22.193Z,11.15
2023-04-28T07:01:22.466Z,11.18
2023-04-28T07:02:22.668Z,11.21
2023-04-28T07:03:22.611Z,11.23
2023-04-28T07:04:23.553Z,11.26
2023-04-28T07:05:23.647Z,11.28
2023-04-28T07:06:24.265Z,11.31
2023-04-28T07:07:25.069Z,11.33
2023-04-28T07:08:25.108Z,11.36
2023-04-28T07:08:38.233Z,11.38
2023-04-28T07:09:38.682Z,11.40
2023-04-28T07:11:01.949Z,11.43
2023-04-28T07:12:02.391Z,11.45
2023-04-28T07:13:03.191Z,11.45
2023-04-28T07:14:03.825Z,11.46
2023-04-28T07:15:04.684Z,11.46
2023-04-28T07:16:04.992Z,11.48
2023-04-28T07:17:05.011Z,11.49
2023-04-28T07:18:05.126Z,11.50
2023-04-28T07:19:06.119Z,11.52
2023-04-28T07:20:05.969Z,11.54
2023-04-28T07:21:06.901Z,11.57
2023-04-28T07:22:07.732Z,11.60
2023-04-28T07:22:20.060Z,11.64
2023-04-28T07:23:20.944Z,11.67
2023-04-28T07:24:21.263Z,11.70
2023-04-28T07:25:21.677Z,11.74
2023-04-28T07:26:22.060Z,11.77
2023-04-28T07:27:22.569Z,11.81
2023-04-28T07:28:22.976Z,11.84
2023-04-28T07:29:23.180Z,11.87
2023-04-28T07:30:27.807Z,11.90
2023-04-28T07:31:24.390Z,11.93
2023-04-28T07:32:24.501Z,11.96
2023-04-28T07:33:25.254Z,12.00
2023-04-28T07:34:26.096Z,12.03
2023-04-28T07:35:26.814Z,12.06
2023-04-28T07:36:27.613Z,12.09
2023-04-28T07:37:28.342Z,12.12
2023-04-28T07:37:40.018Z,12.15
2023-04-28T07:38:40.908Z,12.18
2023-04-28T07:39:41.225Z,12.22
2023-04-28T07:40:41.367Z,12.25
2023-04-28T07:41:41.535Z,12.27
2023-04-28T07:42:41.697Z,12.31
2023-04-28T07:43:42.487Z,12.34
2023-04-28T07:44:42.888Z,12.37
2023-04-28T07:45:43.711Z,12.42
2023-04-28T07:46:44.339Z,12.46
2023-04-28T07:47:47.320Z,12.51
2023-04-28T07:48:45.475Z,12.56
2023-04-28T07:48:58.947Z,12.61
2023-04-28T07:49:59.068Z,12.65
2023-04-28T07:50:59.594Z,12.70
2023-04-28T07:51:59.610Z,12.74
2023-04-28T07:53:00.431Z,12.78
2023-04-28T07:54:02.644Z,12.83
2023-04-28T07:55:03.117Z,12.86
2023-04-28T07:56:03.987Z,12.89
2023-04-28T07:57:03.720Z,12.92
2023-04-28T07:58:04.174Z,12.94
2023-04-28T07:59:05.003Z,12.97
2023-04-28T08:00:05.836Z,12.99
2023-04-28T08:01:06.190Z,13.01
2023-04-28T08:02:07.664Z,13.03
2023-04-28T08:03:10.336Z,13.04
2023-04-28T08:04:09.289Z,13.05
2023-04-28T08:04:22.713Z,13.06
2023-04-28T08:05:22.190Z,13.08
2023-04-28T08:06:22.006Z,13.10
2023-04-28T08:07:22.877Z,13.12
2023-04-28T08:08:23.713Z,13.15
2023-04-28T08:09:24.523Z,13.19
2023-04-28T08:10:24.597Z,13.23
2023-04-28T08:11:25.304Z,13.28
2023-04-28T08:12:26.126Z,13.32
2023-04-28T08:13:26.297Z,13.36
2023-04-28T08:14:27.975Z,13.39
2023-04-28T08:15:28.039Z,13.43
2023-04-28T08:16:28.517Z,13.48
2023-04-28T08:17:30.551Z,13.53
2023-04-28T08:18:29.810Z,13.60
2023-04-28T08:18:41.530Z,13.66
2023-04-28T08:19:41.555Z,13.72
2023-04-28T08:20:42.298Z,13.78
2023-04-28T08:21:43.237Z,13.83
2023-04-28T08:22:43.412Z,13.89
2023-04-28T08:23:43.885Z,13.94
2023-04-28T08:24:44.038Z,13.99
2023-04-28T08:25:44.813Z,14.04
2023-04-28T08:26:45.061Z,14.09
2023-04-28T08:27:45.198Z,14.12
2023-04-28T08:28:46.021Z,14.15
2023-04-28T08:29:46.638Z,14.18
2023-04-28T08:30:46.779Z,14.21
2023-04-28T08:30:58.862Z,14.25
2023-04-28T08:31:59.677Z,14.28
2023-04-28T08:33:00.182Z,14.31
2023-04-28T08:34:00.921Z,14.34
2023-04-28T08:35:01.739Z,14.37
2023-04-28T08:36:02.435Z,14.41
2023-04-28T08:37:03.005Z,14.45
2023-04-28T08:38:03.991Z,14.49
2023-04-28T08:39:04.328Z,14.52
2023-04-28T08:40:04.857Z,14.55
2023-04-28T08:41:05.011Z,14.58
2023-04-28T08:42:05.666Z,14.60
2023-04-28T08:42:17.287Z,14.62
2023-04-28T08:43:21.051Z,14.63
2023-04-28T08:44:18.855Z,14.65
2023-04-28T08:45:19.183Z,14.67
2023-04-28T08:46:19.256Z,14.68
2023-04-28T08:47:19.950Z,14.70
2023-04-28T08:48:20.758Z,14.71
2023-04-28T08:49:20.947Z,14.72
2023-04-28T08:50:21.596Z,14.73
2023-04-28T08:52:00.858Z,14.75
2023-04-28T08:53:00.974Z,14.76
2023-04-28T08:55:01.878Z,14.78
2023-04-28T08:56:03.099Z,14.81
2023-04-28T08:57:02.986Z,14.84
2023-04-28T08:58:03.815Z,14.88
2023-04-28T08:59:04.464Z,14.92
2023-04-28T09:00:04.705Z,14.97
2023-04-28T09:01:05.537Z,15.03
2023-04-28T09:02:05.510Z,15.09
2023-04-28T09:03:06.120Z,15.17
2023-04-28T09:03:23.284Z,15.24
2023-04-28T09:04:23.654Z,15.31
2023-04-28T09:05:24.446Z,15.38
2023-04-28T09:06:24.948Z,15.46
2023-04-28T09:07:25.164Z,15.57
2023-04-28T09:08:25.735Z,15.68
2023-04-28T09:09:26.650Z,15.79
2023-04-28T09:10:27.624Z,15.91
2023-04-28T09:11:27.916Z,16.03
2023-04-28T09:12:29.133Z,16.15
2023-04-28T09:13:29.021Z,16.28
2023-04-28T09:13:37.715Z,16.42
2023-04-28T09:14:37.857Z,16.55
2023-04-28T09:15:38.850Z,16.67
2023-04-28T09:16:39.061Z,16.77
2023-04-28T09:17:39.264Z,16.85
2023-04-28T09:18:39.726Z,16.92
2023-04-28T09:19:40.202Z,16.99
2023-04-28T09:20:40.744Z,17.05
2023-04-28T09:21:41.376Z,17.10
2023-04-28T09:22:42.331Z,17.15
2023-04-28T09:23:42.793Z,17.21
2023-04-28T09:23:58.266Z,17.27
2023-04-28T09:24:59.225Z,17.34
2023-04-28T09:25:59.387Z,17.40
2023-04-28T09:27:01.681Z,17.46
2023-04-28T09:28:02.829Z,17.51
2023-04-28T09:29:01.262Z,17.54
2023-04-28T09:30:01.527Z,17.58
2023-04-28T09:31:02.452Z,17.61
2023-04-28T09:32:02.619Z,17.63
2023-04-28T09:33:03.643Z,17.64
2023-04-28T09:34:03.894Z,17.64
2023-04-28T09:35:04.119Z,17.63
2023-04-28T09:36:05.021Z,17.63
2023-04-28T09:37:05.131Z,17.61
2023-04-28T09:37:14.034Z,17.60
2023-04-28T09:38:14.871Z,17.59
2023-04-28T09:39:16.819Z,17.57
2023-04-28T09:40:15.902Z,17.55
2023-04-28T09:41:15.994Z,17.52
2023-04-28T09:42:16.846Z,17.50
2023-04-28T09:43:21.965Z,17.47
2023-04-28T09:44:18.443Z,17.45
2023-04-28T09:45:24.844Z,17.44
2023-04-28T09:46:19.096Z,17.42
2023-04-28T09:47:19.954Z,17.41
2023-04-28T09:48:20.176Z,17.41
2023-04-28T09:48:30.275Z,17.41
2023-04-28T09:49:31.033Z,17.41
2023-04-28T09:50:31.737Z,17.43
2023-04-28T09:51:32.575Z,17.44
2023-04-28T09:52:33.284Z,17.46
2023-04-28T09:53:33.934Z,17.46
2023-04-28T09:54:34.493Z,17.47
2023-04-28T09:55:35.037Z,17.50
2023-04-28T09:56:36.009Z,17.51
2023-04-28T09:57:36.644Z,17.52
2023-04-28T09:58:37.322Z,17.57
2023-04-28T09:58:49.045Z,17.60
2023-04-28T09:59:49.043Z,17.63
2023-04-28T10:00:49.752Z,17.67
2023-04-28T10:01:49.908Z,17.69
2023-04-28T10:02:49.952Z,17.71
2023-04-28T10:03:50.705Z,17.73
2023-04-28T10:04:51.450Z,17.77
2023-04-28T10:05:51.889Z,17.81
2023-04-28T10:06:52.054Z,17.85
2023-04-28T10:07:52.747Z,17.88
2023-04-28T10:08:52.946Z,17.92
2023-04-28T10:09:53.619Z,17.97
2023-04-28T10:10:02.736Z,18.01
2023-04-28T10:11:03.378Z,18.05
2023-04-28T10:12:05.336Z,18.09
2023-04-28T10:13:05.170Z,18.13
2023-04-28T10:14:05.919Z,18.16
2023-04-28T10:15:06.628Z,18.18
2023-04-28T10:16:07.294Z,18.19
2023-04-28T10:17:08.258Z,18.20
2023-04-28T10:18:09.016Z,18.21
2023-04-28T10:19:09.853Z,18.22
2023-04-28T10:20:10.452Z,18.24
2023-04-28T10:21:11.238Z,18.24
2023-04-28T10:21:23.342Z,18.24
2023-04-28T10:22:23.893Z,18.25
2023-04-28T10:23:24.076Z,18.25
2023-04-28T10:24:24.939Z,18.26
2023-04-28T10:25:25.932Z,18.26
2023-04-28T10:26:26.840Z,18.25
2023-04-28T10:27:27.465Z,18.24
2023-04-28T10:28:28.083Z,18.23
2023-04-28T10:29:28.129Z,18.22
2023-04-28T10:30:29.956Z,18.22
2023-04-28T10:31:29.655Z,18.23
2023-04-28T10:31:38.247Z,18.27
2023-04-28T10:32:38.368Z,18.30
2023-04-28T10:33:39.109Z,18.33
2023-04-28T10:34:39.216Z,18.38
2023-04-28T10:35:39.865Z,18.44
2023-04-28T10:36:40.460Z,18.50
2023-04-28T10:37:41.658Z,18.55
2023-04-28T10:38:41.310Z,18.60
2023-04-28T10:39:41.527Z,18.65
2023-04-28T10:40:42.124Z,18.70
2023-04-28T10:41:43.718Z,18.75
2023-04-28T10:42:43.092Z,18.83
2023-04-28T10:42:51.869Z,18.89
2023-04-28T10:43:52.143Z,18.95
2023-04-28T10:44:52.897Z,19.01
2023-04-28T10:45:56.483Z,19.07
2023-04-28T10:46:54.384Z,19.13
2023-04-28T10:47:55.251Z,19.18
2023-04-28T10:48:55.563Z,19.25
2023-04-28T10:49:56.448Z,19.31
2023-04-28T10:50:57.181Z,19.37
2023-04-28T10:51:57.836Z,19.43
2023-04-28T10:52:59.119Z,19.49
2023-04-28T10:53:59.019Z,19.54
2023-04-28T10:54:07.686Z,19.60
2023-04-28T10:55:19.371Z,19.66
2023-04-28T10:56:08.785Z,19.72
2023-04-28T10:57:09.531Z,19.77
2023-04-28T10:58:10.053Z,19.82
2023-04-28T10:59:10.718Z,19.87
2023-04-28T11:00:11.564Z,19.93
2023-04-28T11:01:12.233Z,19.98
2023-04-28T11:02:13.107Z,20.03
2023-04-28T11:03:14.112Z,20.08
2023-04-28T11:04:14.842Z,20.13
2023-04-28T11:05:15.658Z,20.18
2023-04-28T11:05:26.840Z,20.23
2023-04-28T11:06:27.527Z,20.28
2023-04-28T11:07:28.374Z,20.34
2023-04-28T11:08:29.161Z,20.38
2023-04-28T11:09:29.321Z,20.41
2023-04-28T11:10:29.378Z,20.44
2023-04-28T11:11:30.085Z,20.49
2023-04-28T11:12:30.753Z,20.53
2023-04-28T11:13:31.493Z,20.57
2023-04-28T11:14:32.136Z,20.61
2023-04-28T11:15:32.981Z,20.65
2023-04-28T11:16:33.730Z,20.68
2023-04-28T11:16:43.985Z,20.73
2023-04-28T11:17:44.323Z,20.77
2023-04-28T11:18:44.702Z,20.82
2023-04-28T11:19:45.361Z,20.86
2023-04-28T11:20:45.907Z,20.89
2023-04-28T11:21:46.884Z,20.92
2023-04-28T11:22:47.728Z,20.94
2023-04-28T11:23:48.466Z,20.95
2023-04-28T11:24:48.532Z,20.98
2023-04-28T11:25:48.975Z,21.00
2023-04-28T11:26:49.072Z,21.03
2023-04-28T11:27:49.845Z,21.05
2023-04-28T11:27:58.527Z,21.07
2023-04-28T11:28:59.468Z,21.09
2023-04-28T11:29:58.841Z,21.12
2023-04-28T11:30:59.450Z,21.14
2023-04-28T11:32:00.291Z,21.12
2023-04-28T11:33:00.819Z,21.11
2023-04-28T11:34:01.547Z,21.11
2023-04-28T11:35:02.404Z,21.11
2023-04-28T11:36:03.170Z,21.10
2023-04-28T11:37:03.364Z,21.09
2023-04-28T11:38:03.403Z,21.07
2023-04-28T11:39:03.502Z,21.01
2023-04-28T11:40:04.180Z,20.97
2023-04-28T11:41:04.214Z,20.91
2023-04-28T11:41:12.819Z,20.87
2023-04-28T11:42:12.977Z,20.84
2023-04-28T11:43:13.722Z,20.80
2023-04-28T11:44:14.721Z,20.77
2023-04-28T11:45:15.323Z,20.74
2023-04-28T11:46:15.442Z,20.73
2023-04-28T11:47:15.907Z,20.73
2023-04-28T11:48:16.252Z,20.75
2023-04-28T11:49:16.393Z,20.77
2023-04-28T11:50:17.166Z,20.81
2023-04-28T11:51:17.739Z,20.86
2023-04-28T11:51:26.409Z,20.90
2023-04-28T11:52:26.503Z,20.95
2023-04-28T11:53:27.329Z,20.99
2023-04-28T11:54:28.285Z,21.02
2023-04-28T11:55:28.980Z,21.07
2023-04-28T11:56:29.974Z,21.12
2023-04-28T11:57:30.853Z,21.18
2023-04-28T11:58:31.220Z,21.25
2023-04-28T11:59:31.715Z,21.32
2023-04-28T12:00:32.484Z,21.40
2023-04-28T12:01:32.633Z,21.46
2023-04-28T12:02:33.455Z,21.53
2023-04-28T12:03:33.485Z,21.59
2023-04-28T12:03:42.978Z,21.63
2023-04-28T12:04:43.758Z,21.67
2023-04-28T12:05:43.914Z,21.69
2023-04-28T12:06:44.701Z,21.70
2023-04-28T12:07:45.922Z,21.72
2023-04-28T12:08:46.157Z,21.74
2023-04-28T12:09:46.223Z,21.77
2023-04-28T12:10:47.020Z,21.80
2023-04-28T12:11:47.802Z,21.83
2023-04-28T12:12:52.758Z,21.87
2023-04-28T12:13:48.541Z,21.91
2023-04-28T12:14:48.955Z,21.97
2023-04-28T12:15:49.750Z,22.01